sensor_id;sensor_type;location;lat;lon;timestamp;pressure;altitude;pressure_sealevel;temperature;humidity
46129;BME280;31860;45.186;5.790;2022-12-24T00:00:21;99434.53;;;13.28;100.00
46129;BME280;31860;45.186;5.790;2022-12-24T00:02:48;99438.88;;;13.29;100.00
46129;BME280;31860;45.186;5.790;2022-12-24T00:05:14;99444.13;;;13.31;100.00
46129;BME280;31860;45.186;5.790;2022-12-24T00:07:39;99449.38;;;13.29;100.00
46129;BME280;31860;45.186;5.790;2022-12-24T00:10:06;99448.53;;;13.29;100.00
46129;BME280;31860;45.186;5.790;2022-12-24T00:12:32;99443.25;;;13.30;100.00
46129;BME280;31860;45.186;5.790;2022-12-24T00:14:57;99441.50;;;13.29;100.00
46129;BME280;31860;45.186;5.790;2022-12-24T00:17:23;99437.13;;;13.30;100.00
46129;BME280;31860;45.186;5.790;2022-12-24T00:19:48;99436.25;;;13.29;100.00
46129;BME280;31860;45.186;5.790;2022-12-24T00:22:14;99430.16;;;13.29;100.00
46129;BME280;31860;45.186;5.790;2022-12-24T00:24:39;99431.00;;;13.29;100.00
46129;BME280;31860;45.186;5.790;2022-12-24T00:27:05;99434.53;;;13.28;100.00
46129;BME280;31860;45.186;5.790;2022-12-24T00:29:31;99445.88;;;13.27;100.00
46129;BME280;31860;45.186;5.790;2022-12-24T00:31:56;99447.63;;;13.28;100.00
46129;BME280;31860;45.186;5.790;2022-12-24T00:34:23;99451.13;;;13.27;100.00
46129;BME280;31860;45.186;5.790;2022-12-24T00:36:49;99449.38;;;13.28;100.00
46129;BME280;31860;45.186;5.790;2022-12-24T00:39:14;99460.75;;;13.28;100.00
46129;BME280;31860;45.186;5.790;2022-12-24T00:41:39;99467.72;;;13.29;100.00
46129;BME280;31860;45.186;5.790;2022-12-24T00:44:06;99461.63;;;13.29;100.00
46129;BME280;31860;45.186;5.790;2022-12-24T00:46:35;99455.50;;;13.28;100.00
46129;BME280;31860;45.186;5.790;2022-12-24T00:49:02;99447.63;;;13.28;100.00
46129;BME280;31860;45.186;5.790;2022-12-24T00:51:27;99457.25;;;13.31;100.00
46129;BME280;31860;45.186;5.790;2022-12-24T00:53:53;99459.84;;;13.32;100.00
46129;BME280;31860;45.186;5.790;2022-12-24T00:56:19;99472.09;;;13.32;100.00
46129;BME280;31860;45.186;5.790;2022-12-24T00:58:45;99472.97;;;13.34;100.00
46129;BME280;31860;45.186;5.790;2022-12-24T01:01:11;99466.81;;;13.35;100.00
46129;BME280;31860;45.186;5.790;2022-12-24T01:03:36;99458.09;;;13.33;100.00
46129;BME280;31860;45.186;5.790;2022-12-24T01:06:19;99463.31;;;13.33;100.00
46129;BME280;31860;45.186;5.790;2022-12-24T01:08:45;99480.84;;;13.32;100.00
46129;BME280;31860;45.186;5.790;2022-12-24T01:11:11;99497.44;;;13.35;100.00
46129;BME280;31860;45.186;5.790;2022-12-24T01:13:37;99493.94;;;13.36;100.00
46129;BME280;31860;45.186;5.790;2022-12-24T01:16:10;99498.31;;;13.37;100.00
46129;BME280;31860;45.186;5.790;2022-12-24T01:18:36;99486.03;;;13.37;100.00
46129;BME280;31860;45.186;5.790;2022-12-24T01:21:03;99480.78;;;13.37;100.00
46129;BME280;31860;45.186;5.790;2022-12-24T01:23:29;99479.94;;;13.37;100.00
46129;BME280;31860;45.186;5.790;2022-12-24T01:25:59;99497.44;;;13.36;100.00
46129;BME280;31860;45.186;5.790;2022-12-24T01:28:25;99506.16;;;13.40;100.00
46129;BME280;31860;45.186;5.790;2022-12-24T01:30:50;99512.28;;;13.40;100.00
46129;BME280;31860;45.186;5.790;2022-12-24T01:33:16;99510.50;;;13.41;100.00
46129;BME280;31860;45.186;5.790;2022-12-24T01:35:42;99507.03;;;13.42;100.00
46129;BME280;31860;45.186;5.790;2022-12-24T01:38:08;99504.41;;;13.42;100.00
46129;BME280;31860;45.186;5.790;2022-12-24T01:40:36;99493.91;;;13.42;100.00
46129;BME280;31860;45.186;5.790;2022-12-24T01:43:22;99486.91;;;13.42;100.00
46129;BME280;31860;45.186;5.790;2022-12-24T01:45:52;99496.53;;;13.42;100.00
46129;BME280;31860;45.186;5.790;2022-12-24T01:48:22;99476.41;;;13.41;100.00
46129;BME280;31860;45.186;5.790;2022-12-24T01:51:02;99491.28;;;13.40;100.00
46129;BME280;31860;45.186;5.790;2022-12-24T01:53:30;99489.53;;;13.39;100.00
46129;BME280;31860;45.186;5.790;2022-12-24T01:55:56;99489.53;;;13.39;100.00
46129;BME280;31860;45.186;5.790;2022-12-24T01:58:23;99493.06;;;13.38;100.00
46129;BME280;31860;45.186;5.790;2022-12-24T02:00:50;99497.41;;;13.39;100.00
46129;BME280;31860;45.186;5.790;2022-12-24T02:03:16;99509.66;;;13.40;100.00
46129;BME280;31860;45.186;5.790;2022-12-24T02:05:47;99514.03;;;13.40;100.00
46129;BME280;31860;45.186;5.790;2022-12-24T02:08:13;99514.88;;;13.42;100.00
46129;BME280;31860;45.186;5.790;2022-12-24T02:10:39;99512.28;;;13.40;100.00
46129;BME280;31860;45.186;5.790;2022-12-24T02:13:05;99514.00;;;13.41;100.00
46129;BME280;31860;45.186;5.790;2022-12-24T02:29:31;99478.16;;;13.42;100.00
46129;BME280;31860;45.186;5.790;2022-12-24T02:32:32;99482.53;;;13.41;100.00
46129;BME280;31860;45.186;5.790;2022-12-24T02:35:05;99487.78;;;13.41;100.00
46129;BME280;31860;45.186;5.790;2022-12-24T02:37:43;99486.03;;;13.42;100.00
46129;BME280;31860;45.186;5.790;2022-12-24T02:40:24;99484.25;;;13.41;100.00
46129;BME280;31860;45.186;5.790;2022-12-24T02:42:57;99486.91;;;13.42;100.00
46129;BME280;31860;45.186;5.790;2022-12-24T02:45:28;99488.66;;;13.42;100.00
46129;BME280;31860;45.186;5.790;2022-12-24T02:47:55;99494.75;;;13.44;100.00
46129;BME280;31860;45.186;5.790;2022-12-24T02:50:22;99500.88;;;13.43;100.00
46129;BME280;31860;45.186;5.790;2022-12-24T02:52:48;99507.88;;;13.44;100.00
46129;BME280;31860;45.186;5.790;2022-12-24T02:58:12;99515.75;;;13.45;100.00
46129;BME280;31860;45.186;5.790;2022-12-24T03:03:29;99526.22;;;13.45;100.00
46129;BME280;31860;45.186;5.790;2022-12-24T03:06:25;99532.38;;;13.44;100.00
46129;BME280;31860;45.186;5.790;2022-12-24T03:09:02;99534.97;;;13.46;100.00
46129;BME280;31860;45.186;5.790;2022-12-24T03:11:30;99540.22;;;13.46;100.00
46129;BME280;31860;45.186;5.790;2022-12-24T03:13:57;99523.59;;;13.45;100.00
46129;BME280;31860;45.186;5.790;2022-12-24T03:16:25;99512.25;;;13.46;100.00
46129;BME280;31860;45.186;5.790;2022-12-24T03:18:53;99509.63;;;13.46;100.00
46129;BME280;31860;45.186;5.790;2022-12-24T03:21:24;99512.25;;;13.46;100.00
46129;BME280;31860;45.186;5.790;2022-12-24T03:23:51;99507.00;;;13.46;100.00
46129;BME280;31860;45.186;5.790;2022-12-24T03:26:18;99497.34;;;13.47;100.00
46129;BME280;31860;45.186;5.790;2022-12-24T03:28:45;99506.13;;;13.46;100.00
46129;BME280;31860;45.186;5.790;2022-12-24T03:31:11;99519.25;;;13.44;100.00
46129;BME280;31860;45.186;5.790;2022-12-24T03:33:37;99516.63;;;13.44;100.00
46129;BME280;31860;45.186;5.790;2022-12-24T03:36:04;99515.78;;;13.42;100.00
46129;BME280;31860;45.186;5.790;2022-12-24T03:38:30;99507.88;;;13.44;100.00
46129;BME280;31860;45.186;5.790;2022-12-24T03:40:55;99508.75;;;13.44;100.00
46129;BME280;31860;45.186;5.790;2022-12-24T03:43:21;99508.75;;;13.43;100.00
46129;BME280;31860;45.186;5.790;2022-12-24T03:45:46;99501.75;;;13.43;100.00
46129;BME280;31860;45.186;5.790;2022-12-24T03:48:12;99511.38;;;13.44;100.00
46129;BME280;31860;45.186;5.790;2022-12-24T03:50:37;99507.88;;;13.44;100.00
46129;BME280;31860;45.186;5.790;2022-12-24T03:53:03;99499.13;;;13.43;100.00
46129;BME280;31860;45.186;5.790;2022-12-24T03:55:28;99506.13;;;13.44;100.00
46129;BME280;31860;45.186;5.790;2022-12-24T03:57:53;99498.25;;;13.46;100.00
46129;BME280;31860;45.186;5.790;2022-12-24T04:00:19;99493.00;;;13.46;100.00
46129;BME280;31860;45.186;5.790;2022-12-24T04:02:45;99476.34;;;13.47;100.00
46129;BME280;31860;45.186;5.790;2022-12-24T04:05:16;99468.47;;;13.47;100.00
46129;BME280;31860;45.186;5.790;2022-12-24T04:07:42;99476.34;;;13.47;100.00
46129;BME280;31860;45.186;5.790;2022-12-24T04:10:09;99480.75;;;13.48;100.00
46129;BME280;31860;45.186;5.790;2022-12-24T04:12:35;99478.09;;;13.49;100.00
46129;BME280;31860;45.186;5.790;2022-12-24T04:15:00;99465.84;;;13.50;100.00
46129;BME280;31860;45.186;5.790;2022-12-24T04:17:26;99453.59;;;13.50;100.00
46129;BME280;31860;45.186;5.790;2022-12-24T04:19:51;99458.84;;;13.52;100.00
46129;BME280;31860;45.186;5.790;2022-12-24T04:22:17;99464.06;;;13.53;100.00
46129;BME280;31860;45.186;5.790;2022-12-24T04:24:43;99457.94;;;13.54;100.00
46129;BME280;31860;45.186;5.790;2022-12-24T04:27:08;99456.19;;;13.55;100.00
46129;BME280;31860;45.186;5.790;2022-12-24T04:29:33;99458.78;;;13.56;100.00
46129;BME280;31860;45.186;5.790;2022-12-24T04:31:59;99451.81;;;13.57;100.00
46129;BME280;31860;45.186;5.790;2022-12-24T04:34:25;99453.53;;;13.58;100.00
46129;BME280;31860;45.186;5.790;2022-12-24T04:36:51;99453.53;;;13.58;100.00
46129;BME280;31860;45.186;5.790;2022-12-24T04:39:16;99453.53;;;13.56;100.00
46129;BME280;31860;45.186;5.790;2022-12-24T04:41:41;99456.16;;;13.58;100.00
46129;BME280;31860;45.186;5.790;2022-12-24T04:44:07;99455.31;;;13.57;100.00
46129;BME280;31860;45.186;5.790;2022-12-24T04:46:33;99465.81;;;13.57;100.00
46129;BME280;31860;45.186;5.790;2022-12-24T04:48:59;99469.28;;;13.58;100.00
46129;BME280;31860;45.186;5.790;2022-12-24T04:51:26;99468.44;;;13.57;100.00
46129;BME280;31860;45.186;5.790;2022-12-24T04:53:51;99471.91;;;13.58;100.00
46129;BME280;31860;45.186;5.790;2022-12-24T04:56:22;99471.06;;;13.57;100.00
46129;BME280;31860;45.186;5.790;2022-12-24T04:58:48;99466.66;;;13.56;100.00
46129;BME280;31860;45.186;5.790;2022-12-24T05:01:18;99474.56;;;13.55;100.00
46129;BME280;31860;45.186;5.790;2022-12-24T05:03:43;99481.56;;;13.53;100.00
46129;BME280;31860;45.186;5.790;2022-12-24T05:06:15;99487.72;;;13.52;100.00
46129;BME280;31860;45.186;5.790;2022-12-24T05:08:40;99489.47;;;13.51;100.00
46129;BME280;31860;45.186;5.790;2022-12-24T05:11:06;99485.94;;;13.51;100.00
46129;BME280;31860;45.186;5.790;2022-12-24T05:13:32;99486.84;;;13.50;100.00
46129;BME280;31860;45.186;5.790;2022-12-24T05:15:58;99484.22;;;13.50;100.00
46129;BME280;31860;45.186;5.790;2022-12-24T05:18:24;99475.47;;;13.49;100.00
46129;BME280;31860;45.186;5.790;2022-12-24T05:20:49;99482.47;;;13.49;100.00
46129;BME280;31860;45.186;5.790;2022-12-24T05:23:16;99477.22;;;13.49;100.00
46129;BME280;31860;45.186;5.790;2022-12-24T05:26:00;99477.25;;;13.47;100.00
46129;BME280;31860;45.186;5.790;2022-12-24T05:28:44;99475.50;;;13.45;100.00
46129;BME280;31860;45.186;5.790;2022-12-24T05:31:09;99477.28;;;13.44;100.00
46129;BME280;31860;45.186;5.790;2022-12-24T05:33:35;99486.00;;;13.45;100.00
46129;BME280;31860;45.186;5.790;2022-12-24T05:36:01;99487.75;;;13.46;100.00
46129;BME280;31860;45.186;5.790;2022-12-24T05:38:27;99493.00;;;13.46;100.00
46129;BME280;31860;45.186;5.790;2022-12-24T05:40:52;99493.88;;;13.46;100.00
46129;BME280;31860;45.186;5.790;2022-12-24T05:43:17;99500.84;;;13.49;100.00
46129;BME280;31860;45.186;5.790;2022-12-24T05:45:43;99505.22;;;13.50;100.00
46129;BME280;31860;45.186;5.790;2022-12-24T05:48:09;99517.47;;;13.49;100.00
46129;BME280;31860;45.186;5.790;2022-12-24T05:50:35;99522.69;;;13.51;100.00
46129;BME280;31860;45.186;5.790;2022-12-24T05:53:02;99513.94;;;13.53;100.00
46129;BME280;31860;45.186;5.790;2022-12-24T05:55:28;99506.94;;;13.52;100.00
46129;BME280;31860;45.186;5.790;2022-12-24T05:57:53;99513.06;;;13.53;100.00
46129;BME280;31860;45.186;5.790;2022-12-24T06:00:19;99511.31;;;13.53;100.00
46129;BME280;31860;45.186;5.790;2022-12-24T06:02:45;99513.94;;;13.55;100.00
46129;BME280;31860;45.186;5.790;2022-12-24T06:05:10;99525.31;;;13.54;100.00
46129;BME280;31860;45.186;5.790;2022-12-24T06:07:36;99516.56;;;13.55;100.00
46129;BME280;31860;45.186;5.790;2022-12-24T06:10:01;99500.81;;;13.53;100.00
46129;BME280;31860;45.186;5.790;2022-12-24T06:12:27;99492.94;;;13.53;100.00
46129;BME280;31860;45.186;5.790;2022-12-24T06:14:52;99478.94;;;13.54;100.00
46129;BME280;31860;45.186;5.790;2022-12-24T06:17:18;99498.19;;;13.55;100.00
46129;BME280;31860;45.186;5.790;2022-12-24T06:19:43;99516.56;;;13.53;100.00
46129;BME280;31860;45.186;5.790;2022-12-24T06:22:08;99527.06;;;13.53;100.00
46129;BME280;31860;45.186;5.790;2022-12-24T06:24:34;99516.56;;;13.53;100.00
46129;BME280;31860;45.186;5.790;2022-12-24T06:26:59;99501.69;;;13.51;100.00
46129;BME280;31860;45.186;5.790;2022-12-24T06:29:25;99499.97;;;13.50;100.00
46129;BME280;31860;45.186;5.790;2022-12-24T06:31:50;99494.72;;;13.51;100.00
46129;BME280;31860;45.186;5.790;2022-12-24T06:34:16;99472.84;;;13.51;100.00
46129;BME280;31860;45.186;5.790;2022-12-24T06:36:42;99469.31;;;13.50;100.00
46129;BME280;31860;45.186;5.790;2022-12-24T06:39:07;99467.59;;;13.49;100.00
46129;BME280;31860;45.186;5.790;2022-12-24T06:41:32;99457.97;;;13.48;100.00
46129;BME280;31860;45.186;5.790;2022-12-24T06:43:58;99464.13;;;13.47;100.00
46129;BME280;31860;45.186;5.790;2022-12-24T06:46:24;99465.00;;;13.48;100.00
46129;BME280;31860;45.186;5.790;2022-12-24T06:48:49;99472.00;;;13.47;100.00
46129;BME280;31860;45.186;5.790;2022-12-24T06:51:16;99463.25;;;13.45;100.00
46129;BME280;31860;45.186;5.790;2022-12-24T06:53:44;99457.13;;;13.48;100.00
46129;BME280;31860;45.186;5.790;2022-12-24T06:56:11;99459.75;;;13.48;100.00
46129;BME280;31860;45.186;5.790;2022-12-24T06:58:37;99449.25;;;13.48;100.00
46129;BME280;31860;45.186;5.790;2022-12-24T07:01:04;99445.75;;;13.47;100.00
46129;BME280;31860;45.186;5.790;2022-12-24T07:03:30;99451.00;;;13.47;100.00
46129;BME280;31860;45.186;5.790;2022-12-24T07:05:56;99445.72;;;13.49;100.00
46129;BME280;31860;45.186;5.790;2022-12-24T07:08:22;99440.47;;;13.49;100.00
46129;BME280;31860;45.186;5.790;2022-12-24T07:10:48;99433.50;;;13.49;100.00
46129;BME280;31860;45.186;5.790;2022-12-24T07:13:14;99434.38;;;13.50;100.00
46129;BME280;31860;45.186;5.790;2022-12-24T07:15:40;99443.09;;;13.52;100.00
46129;BME280;31860;45.186;5.790;2022-12-24T07:18:05;99443.09;;;13.52;100.00
46129;BME280;31860;45.186;5.790;2022-12-24T07:20:31;99429.09;;;13.53;100.00
46129;BME280;31860;45.186;5.790;2022-12-24T07:22:56;99424.72;;;13.52;100.00
46129;BME280;31860;45.186;5.790;2022-12-24T07:25:22;99432.59;;;13.53;100.00
46129;BME280;31860;45.186;5.790;2022-12-24T07:27:47;99443.06;;;13.55;100.00
46129;BME280;31860;45.186;5.790;2022-12-24T07:30:12;99446.56;;;13.55;100.00
46129;BME280;31860;45.186;5.790;2022-12-24T07:32:38;99450.03;;;13.56;100.00
46129;BME280;31860;45.186;5.790;2022-12-24T07:35:04;99447.44;;;13.57;100.00
46129;BME280;31860;45.186;5.790;2022-12-24T07:37:29;99456.16;;;13.58;100.00
46129;BME280;31860;45.186;5.790;2022-12-24T07:39:55;99440.41;;;13.58;100.00
46129;BME280;31860;45.186;5.790;2022-12-24T07:42:21;99437.78;;;13.59;100.00
46129;BME280;31860;45.186;5.790;2022-12-24T07:44:46;99443.03;;;13.61;100.00
46129;BME280;31860;45.186;5.790;2022-12-24T07:47:12;99443.91;;;13.58;100.00
46129;BME280;31860;45.186;5.790;2022-12-24T07:49:37;99458.78;;;13.58;100.00
46129;BME280;31860;45.186;5.790;2022-12-24T07:52:03;99457.91;;;13.56;100.00
46129;BME280;31860;45.186;5.790;2022-12-24T07:54:29;99457.06;;;13.55;100.00
46129;BME280;31860;45.186;5.790;2022-12-24T07:56:54;99466.69;;;13.53;100.00
46129;BME280;31860;45.186;5.790;2022-12-24T07:59:20;99467.59;;;13.54;100.00
46129;BME280;31860;45.186;5.790;2022-12-24T08:01:46;99461.47;;;13.52;100.00
46129;BME280;31860;45.186;5.790;2022-12-24T08:04:11;99454.47;;;13.51;100.00
46129;BME280;31860;45.186;5.790;2022-12-24T08:06:37;99458.84;;;13.52;100.00
46129;BME280;31860;45.186;5.790;2022-12-24T08:09:02;99451.84;;;13.51;100.00
46129;BME280;31860;45.186;5.790;2022-12-24T08:11:28;99449.22;;;13.51;100.00
46129;BME280;31860;45.186;5.790;2022-12-24T08:13:53;99443.09;;;13.49;100.00
46129;BME280;31860;45.186;5.790;2022-12-24T08:16:19;99453.59;;;13.50;100.00
46129;BME280;31860;45.186;5.790;2022-12-24T08:18:45;99453.59;;;13.50;100.00
46129;BME280;31860;45.186;5.790;2022-12-24T08:21:10;99465.84;;;13.51;100.00
46129;BME280;31860;45.186;5.790;2022-12-24T08:23:36;99463.22;;;13.51;100.00
46129;BME280;31860;45.186;5.790;2022-12-24T08:26:02;99456.22;;;13.53;100.00
46129;BME280;31860;45.186;5.790;2022-12-24T08:28:27;99441.34;;;13.54;100.00
46129;BME280;31860;45.186;5.790;2022-12-24T08:30:53;99449.22;;;13.54;100.00
46129;BME280;31860;45.186;5.790;2022-12-24T08:33:19;99450.03;;;13.56;100.00
46129;BME280;31860;45.186;5.790;2022-12-24T08:35:48;99455.28;;;13.56;100.00
46129;BME280;31860;45.186;5.790;2022-12-24T08:38:14;99463.19;;;13.57;100.00
46129;BME280;31860;45.186;5.790;2022-12-24T08:40:41;99468.41;;;13.59;100.00
46129;BME280;31860;45.186;5.790;2022-12-24T08:43:06;99480.66;;;13.61;100.00
46129;BME280;31860;45.186;5.790;2022-12-24T08:45:31;99474.50;;;13.62;100.00
46129;BME280;31860;45.186;5.790;2022-12-24T08:47:58;99458.72;;;13.64;100.00
46129;BME280;31860;45.186;5.790;2022-12-24T08:50:24;99458.72;;;13.65;100.00
46129;BME280;31860;45.186;5.790;2022-12-24T08:52:50;99453.47;;;13.67;100.00
46129;BME280;31860;45.186;5.790;2022-12-24T08:55:15;99450.84;;;13.68;100.00
46129;BME280;31860;45.186;5.790;2022-12-24T08:57:41;99455.19;;;13.69;100.00
46129;BME280;31860;45.186;5.790;2022-12-24T09:00:07;99463.06;;;13.72;100.00
46129;BME280;31860;45.186;5.790;2022-12-24T09:02:33;99447.31;;;13.72;100.00
46129;BME280;31860;45.186;5.790;2022-12-24T09:04:58;99457.78;;;13.74;100.00
46129;BME280;31860;45.186;5.790;2022-12-24T09:07:24;99443.75;;;13.75;100.00
46129;BME280;31860;45.186;5.790;2022-12-24T09:09:49;99446.41;;;13.76;100.00
46129;BME280;31860;45.186;5.790;2022-12-24T09:12:15;99442.84;;;13.79;100.00
46129;BME280;31860;45.186;5.790;2022-12-24T09:14:40;99447.22;;;13.81;100.00
46129;BME280;31860;45.186;5.790;2022-12-24T09:17:06;99442.84;;;13.82;100.00
46129;BME280;31860;45.186;5.790;2022-12-24T09:19:31;99439.31;;;13.83;100.00
46129;BME280;31860;45.186;5.790;2022-12-24T09:21:56;99422.69;;;13.85;100.00
46129;BME280;31860;45.186;5.790;2022-12-24T09:24:22;99430.50;;;13.88;100.00
46129;BME280;31860;45.186;5.790;2022-12-24T09:26:47;99427.88;;;13.90;100.00
46129;BME280;31860;45.186;5.790;2022-12-24T09:29:14;99432.25;;;13.91;100.00
46129;BME280;31860;45.186;5.790;2022-12-24T09:31:40;99438.34;;;13.93;100.00
46129;BME280;31860;45.186;5.790;2022-12-24T09:34:06;99437.47;;;13.94;100.00
46129;BME280;31860;45.186;5.790;2022-12-24T09:36:32;99436.53;;;13.98;100.00
46129;BME280;31860;45.186;5.790;2022-12-24T09:38:58;99452.25;;;14.01;100.00
46129;BME280;31860;45.186;5.790;2022-12-24T09:41:43;99449.59;;;14.05;100.00
46129;BME280;31860;45.186;5.790;2022-12-24T09:46:44;99444.31;;;14.07;100.00
46129;BME280;31860;45.186;5.790;2022-12-24T09:49:21;99455.69;;;14.09;100.00
46129;BME280;31860;45.186;5.790;2022-12-24T09:51:51;99461.81;;;14.09;100.00
46129;BME280;31860;45.186;5.790;2022-12-24T09:54:37;99466.19;;;14.10;100.00
46129;BME280;31860;45.186;5.790;2022-12-24T09:57:14;99462.66;;;14.13;100.00
46129;BME280;31860;45.186;5.790;2022-12-24T09:59:43;99453.00;;;14.15;100.00
46129;BME280;31860;45.186;5.790;2022-12-24T10:02:15;99453.88;;;14.17;100.00
46129;BME280;31860;45.186;5.790;2022-12-24T10:04:42;99459.09;;;14.18;100.00
46129;BME280;31860;45.186;5.790;2022-12-24T10:08:00;99466.97;;;14.21;100.00
46129;BME280;31860;45.186;5.790;2022-12-24T10:10:37;99464.31;;;14.23;100.00
46129;BME280;31860;45.186;5.790;2022-12-24T10:15:47;99460.78;;;14.29;100.00
46129;BME280;31860;45.186;5.790;2022-12-24T10:23:49;99440.53;;;14.38;100.00
46129;BME280;31860;45.186;5.790;2022-12-24T10:26:24;99427.38;;;14.40;100.00
46129;BME280;31860;45.186;5.790;2022-12-24T10:29:00;99429.97;;;14.41;100.00
46129;BME280;31860;45.186;5.790;2022-12-24T10:31:32;99428.22;;;14.43;100.00
46129;BME280;31860;45.186;5.790;2022-12-24T10:34:09;99428.22;;;14.43;100.00
46129;BME280;31860;45.186;5.790;2022-12-24T10:36:38;99425.53;;;14.46;100.00
46129;BME280;31860;45.186;5.790;2022-12-24T10:39:08;99416.78;;;14.47;100.00
46129;BME280;31860;45.186;5.790;2022-12-24T10:41:40;99417.63;;;14.49;100.00
46129;BME280;31860;45.186;5.790;2022-12-24T10:44:12;99419.34;;;14.50;100.00
46129;BME280;31860;45.186;5.790;2022-12-24T10:46:40;99421.97;;;14.53;100.00
46129;BME280;31860;45.186;5.790;2022-12-24T10:49:12;99420.19;;;14.55;100.00
46129;BME280;31860;45.186;5.790;2022-12-24T10:52:14;99418.38;;;14.59;100.00
46129;BME280;31860;45.186;5.790;2022-12-24T10:55:07;99412.19;;;14.61;100.00
46129;BME280;31860;45.186;5.790;2022-12-24T10:57:33;99412.19;;;14.64;100.00
46129;BME280;31860;45.186;5.790;2022-12-24T11:00:00;99406.91;;;14.66;100.00
46129;BME280;31860;45.186;5.790;2022-12-24T11:02:37;99412.97;;;14.69;100.00
46129;BME280;31860;45.186;5.790;2022-12-24T11:10:41;99408.50;;;14.77;100.00
46129;BME280;31860;45.186;5.790;2022-12-24T11:15:50;99400.53;;;14.83;100.00
46129;BME280;31860;45.186;5.790;2022-12-24T11:18:24;99390.84;;;14.87;100.00
46129;BME280;31860;45.186;5.790;2022-12-24T11:20:51;99391.69;;;14.89;100.00
46129;BME280;31860;45.186;5.790;2022-12-24T11:23:17;99393.38;;;14.91;100.00
46129;BME280;31860;45.186;5.790;2022-12-24T11:25:48;99394.22;;;14.93;100.00
46129;BME280;31860;45.186;5.790;2022-12-24T11:28:24;99393.28;;;14.97;100.00
46129;BME280;31860;45.186;5.790;2022-12-24T11:31:18;99388.88;;;14.99;100.00
46129;BME280;31860;45.186;5.790;2022-12-24T11:33:47;99381.84;;;15.01;100.00
46129;BME280;31860;45.186;5.790;2022-12-24T11:36:12;99381.81;;;15.04;100.00
46129;BME280;31860;45.186;5.790;2022-12-24T11:38:38;99378.22;;;15.08;100.00
46129;BME280;31860;45.186;5.790;2022-12-24T11:41:08;99380.84;;;15.10;100.00
46129;BME280;31860;45.186;5.790;2022-12-24T11:43:44;99372.03;;;15.12;100.00
46129;BME280;31860;45.186;5.790;2022-12-24T11:46:14;99363.25;;;15.13;100.00
46129;BME280;31860;45.186;5.790;2022-12-24T11:48:41;99357.13;;;15.13;100.00
46129;BME280;31860;45.186;5.790;2022-12-24T11:51:22;99359.72;;;15.14;100.00
46129;BME280;31860;45.186;5.790;2022-12-24T11:56:51;99345.59;;;15.20;100.00
46129;BME280;31860;45.186;5.790;2022-12-24T11:59:25;99344.69;;;15.23;100.00
46129;BME280;31860;45.186;5.790;2022-12-24T12:02:27;99348.09;;;15.28;100.00
46129;BME280;31860;45.186;5.790;2022-12-24T12:04:58;99342.81;;;15.31;100.00
46129;BME280;31860;45.186;5.790;2022-12-24T12:07:27;99338.31;;;15.36;100.00
46129;BME280;31860;45.186;5.790;2022-12-24T12:10:17;99341.75;;;15.39;100.00
46129;BME280;31860;45.186;5.790;2022-12-24T12:15:23;99348.69;;;15.48;100.00
46129;BME280;31860;45.186;5.790;2022-12-24T12:20:32;99342.38;;;15.56;100.00
46129;BME280;31860;45.186;5.790;2022-12-24T12:23:00;99343.16;;;15.61;100.00
46129;BME280;31860;45.186;5.790;2022-12-24T12:25:45;99329.88;;;15.67;100.00
46129;BME280;31860;45.186;5.790;2022-12-24T12:31:20;99316.53;;;15.78;100.00
46129;BME280;31860;45.186;5.790;2022-12-24T12:33:58;99314.66;;;15.83;100.00
46129;BME280;31860;45.186;5.790;2022-12-24T12:36:33;99317.19;;;15.89;100.00
46129;BME280;31860;45.186;5.790;2022-12-24T12:39:00;99320.56;;;15.95;100.00
46129;BME280;31860;45.186;5.790;2022-12-24T12:41:34;99320.44;;;16.01;100.00
46129;BME280;31860;45.186;5.790;2022-12-24T12:57:59;99310.19;;;16.29;100.00
46129;BME280;31860;45.186;5.790;2022-12-24T13:00:27;99308.34;;;16.34;100.00
46129;BME280;31860;45.186;5.790;2022-12-24T13:09:26;99301.03;;;16.48;100.00
46129;BME280;31860;45.186;5.790;2022-12-24T13:14:56;99298.25;;;16.54;100.00
46129;BME280;31860;45.186;5.790;2022-12-24T13:20:25;99295.44;;;16.62;100.00
46129;BME280;31860;45.186;5.790;2022-12-24T13:23:16;99295.41;;;16.63;100.00
46129;BME280;31860;45.186;5.790;2022-12-24T13:25:44;99297.13;;;16.66;100.00
46129;BME280;31860;45.186;5.790;2022-12-24T13:36:03;99297.06;;;16.67;100.00
46129;BME280;31860;45.186;5.790;2022-12-24T13:38:32;99295.38;;;16.66;100.00
46129;BME280;31860;45.186;5.790;2022-12-24T13:49:20;99304.34;;;16.58;100.00
46129;BME280;31860;45.186;5.790;2022-12-24T13:51:50;99302.66;;;16.55;100.00
46129;BME280;31860;45.186;5.790;2022-12-24T13:54:18;99300.94;;;16.53;100.00
46129;BME280;31860;45.186;5.790;2022-12-24T13:56:46;99307.09;;;16.53;100.00
46129;BME280;31860;45.186;5.790;2022-12-24T13:59:29;99300.09;;;16.51;100.00
46129;BME280;31860;45.186;5.790;2022-12-24T14:01:58;99305.41;;;16.49;100.00
46129;BME280;31860;45.186;5.790;2022-12-24T14:04:32;99304.53;;;16.49;100.00
46129;BME280;31860;45.186;5.790;2022-12-24T14:07:01;99304.53;;;16.49;100.00
46129;BME280;31860;45.186;5.790;2022-12-24T14:09:30;99307.19;;;16.49;100.00
46129;BME280;31860;45.186;5.790;2022-12-24T14:14:36;99306.31;;;16.48;100.00
46129;BME280;31860;45.186;5.790;2022-12-24T14:17:12;99302.81;;;16.48;100.00
46129;BME280;31860;45.186;5.790;2022-12-24T14:19:45;99308.94;;;16.48;100.00
46129;BME280;31860;45.186;5.790;2022-12-24T14:24:41;99301.06;;;16.45;100.00
46129;BME280;31860;45.186;5.790;2022-12-24T14:27:16;99309.88;;;16.44;100.00
46129;BME280;31860;45.186;5.790;2022-12-24T14:29:49;99299.34;;;16.43;100.00
46129;BME280;31860;45.186;5.790;2022-12-24T14:32:16;99307.31;;;16.41;100.00
46129;BME280;31860;45.186;5.790;2022-12-24T14:34:42;99302.06;;;16.40;100.00